createdAt,value
2023-04-05T00:00:32.134Z,11.23
2023-04-05T00:03:12.282Z,11.23
2023-04-05T00:05:40.669Z,11.20
2023-04-05T00:08:18.053Z,11.17
2023-04-05T00:10:45.609Z,11.12
2023-04-05T00:13:13.169Z,11.05
2023-04-05T00:15:42.060Z,10.99
2023-04-05T00:18:21.191Z,10.92
2023-04-05T00:20:49.087Z,10.84
2023-04-05T00:23:18.255Z,10.78
2023-04-05T00:25:45.397Z,10.74
2023-04-05T00:28:12.415Z,10.72
2023-04-05T00:30:41.021Z,10.73
2023-04-05T00:33:09.073Z,10.74
2023-04-05T00:35:37.878Z,10.74
2023-04-05T00:38:05.518Z,10.74
2023-04-05T00:40:34.702Z,10.72
2023-04-05T00:43:02.729Z,10.74
2023-04-05T00:45:30.996Z,10.77
2023-04-05T00:47:58.889Z,10.79
2023-04-05T00:50:30.516Z,10.82
2023-04-05T00:52:58.520Z,10.86
2023-04-05T00:55:26.217Z,10.86
2023-04-05T00:57:55.348Z,10.87
2023-04-05T01:00:22.713Z,10.89
2023-04-05T01:02:52.945Z,10.88
2023-04-05T01:05:25.217Z,10.89
2023-04-05T01:07:54.905Z,10.88
2023-04-05T01:10:22.354Z,10.85
2023-04-05T01:12:49.720Z,10.83
2023-04-05T01:15:18.597Z,10.79
2023-04-05T01:17:46.679Z,10.76
2023-04-05T01:20:15.005Z,10.72
2023-04-05T01:22:43.022Z,10.68
2023-04-05T01:25:30.561Z,10.65
2023-04-05T01:27:58.406Z,10.64
2023-04-05T01:30:32.413Z,10.61
2023-04-05T01:33:13.940Z,10.58
2023-04-05T01:35:53.461Z,10.56
2023-04-05T01:38:27.363Z,10.55
2023-04-05T01:40:55.223Z,10.54
2023-04-05T01:43:25.212Z,10.51
2023-04-05T01:45:52.691Z,10.50
2023-04-05T01:48:20.714Z,10.48
2023-04-05T01:50:48.221Z,10.45
2023-04-05T01:53:15.675Z,10.45
2023-04-05T01:55:43.959Z,10.45
2023-04-05T01:58:11.510Z,10.47
2023-04-05T02:00:39.263Z,10.50
2023-04-05T02:03:06.844Z,10.52
2023-04-05T02:05:34.223Z,10.54
2023-04-05T02:08:05.631Z,10.56
2023-04-05T02:10:33.196Z,10.57
2023-04-05T02:13:00.989Z,10.55
2023-04-05T02:15:29.678Z,10.53
2023-04-05T02:18:01.709Z,10.51
2023-04-05T02:20:29.168Z,10.51
2023-04-05T02:22:56.316Z,10.49
2023-04-05T02:25:24.089Z,10.48
2023-04-05T02:27:51.433Z,10.47
2023-04-05T02:30:19.302Z,10.47
2023-04-05T02:32:46.637Z,10.48
2023-04-05T02:35:17.902Z,10.50
2023-04-05T02:37:45.252Z,10.51
2023-04-05T02:40:13.121Z,10.53
2023-04-05T02:42:42.217Z,10.53
2023-04-05T02:45:10.191Z,10.56
2023-04-05T02:47:38.125Z,10.57
2023-04-05T02:50:06.431Z,10.57
2023-04-05T02:52:41.503Z,10.54
2023-04-05T02:55:09.264Z,10.53
2023-04-05T02:57:37.091Z,10.54
2023-04-05T03:00:13.045Z,10.54
2023-04-05T03:02:40.551Z,10.52
2023-04-05T03:05:08.983Z,10.52
2023-04-05T03:07:37.738Z,10.50
2023-04-05T03:10:07.888Z,10.48
2023-04-05T03:12:36.296Z,10.48
2023-04-05T03:15:05.364Z,10.46
2023-04-05T03:17:37.252Z,10.43
2023-04-05T03:20:09.192Z,10.41
2023-04-05T03:22:37.667Z,10.38
2023-04-05T03:25:06.153Z,10.34
2023-04-05T03:27:36.270Z,10.31
2023-04-05T03:30:10.558Z,10.30
2023-04-05T03:33:02.463Z,10.32
2023-04-05T03:35:59.100Z,10.33
2023-04-05T03:38:28.149Z,10.33
2023-04-05T03:41:25.505Z,10.31
2023-04-05T03:43:52.961Z,10.30
2023-04-05T03:46:22.044Z,10.28
2023-04-05T03:48:49.203Z,10.25
2023-04-05T03:51:18.504Z,10.22
2023-04-05T03:53:50.978Z,10.20
2023-04-05T03:56:18.333Z,10.22
2023-04-05T03:58:51.783Z,10.24
2023-04-05T04:01:22.405Z,10.26
2023-04-05T04:03:50.120Z,10.27
2023-04-05T04:06:19.369Z,10.26
2023-04-05T04:08:47.320Z,10.25
2023-04-05T04:11:15.665Z,10.27
2023-04-05T04:13:45.211Z,10.28
2023-04-05T04:16:21.841Z,10.30
2023-04-05T04:18:55.246Z,10.31
2023-04-05T04:21:51.684Z,10.32
2023-04-05T04:24:45.752Z,10.34
2023-04-05T04:27:35.224Z,10.36
2023-04-05T04:30:24.635Z,10.38
2023-04-05T04:33:14.482Z,10.41
2023-04-05T04:35:55.014Z,10.44
2023-04-05T04:38:44.215Z,10.49
2023-04-05T04:41:33.679Z,10.53
2023-04-05T04:44:14.672Z,10.56
2023-04-05T04:47:17.132Z,10.60
2023-04-05T04:49:52.575Z,10.66
2023-04-05T04:52:20.337Z,10.71
2023-04-05T04:54:47.689Z,10.78
2023-04-05T04:57:16.491Z,10.82
2023-04-05T04:59:43.973Z,10.86
2023-04-05T05:02:18.258Z,10.90
2023-04-05T05:04:45.977Z,10.92
2023-04-05T05:07:15.030Z,10.96
2023-04-05T05:09:43.809Z,11.01
2023-04-05T05:12:13.209Z,11.05
2023-04-05T05:14:40.681Z,11.12
2023-04-05T05:17:08.327Z,11.20
2023-04-05T05:19:36.701Z,11.28
2023-04-05T05:22:04.167Z,11.34
2023-04-05T05:24:31.853Z,11.40
2023-04-05T05:26:59.377Z,11.45
2023-04-05T05:29:32.796Z,11.48
2023-04-05T05:32:00.445Z,11.50
2023-04-05T05:34:28.099Z,11.52
2023-04-05T05:37:01.741Z,11.56
2023-04-05T05:39:29.548Z,11.60
2023-04-05T05:41:57.960Z,11.66
2023-04-05T05:44:25.450Z,11.74
2023-04-05T05:46:52.855Z,11.84
2023-04-05T05:49:20.414Z,11.94
2023-04-05T05:51:52.605Z,12.03
2023-04-05T05:54:20.454Z,12.09
2023-04-05T05:56:47.804Z,12.13
2023-04-05T05:59:16.324Z,12.19
2023-04-05T06:01:46.161Z,12.27
2023-04-05T06:04:13.414Z,12.35
2023-04-05T06:06:43.467Z,12.43
2023-04-05T06:09:11.230Z,12.49
2023-04-05T06:11:53.230Z,12.55
2023-04-05T06:14:24.075Z,12.59
2023-04-05T06:16:53.292Z,12.61
2023-04-05T06:19:20.929Z,12.59
2023-04-05T06:21:48.308Z,12.59
2023-04-05T06:24:15.948Z,12.61
2023-04-05T06:26:43.118Z,12.61
2023-04-05T06:29:11.814Z,12.64
2023-04-05T06:31:42.224Z,12.67
2023-04-05T06:34:09.749Z,12.71
2023-04-05T06:36:47.094Z,12.77
2023-04-05T06:39:14.493Z,12.85
2023-04-05T06:41:42.061Z,12.94
2023-04-05T06:44:09.316Z,13.00
2023-04-05T06:46:36.668Z,13.05
2023-04-05T06:49:04.370Z,13.10
2023-04-05T06:51:31.676Z,13.15
2023-04-05T06:54:00.481Z,13.17
2023-04-05T06:56:28.576Z,13.19
2023-04-05T06:58:57.704Z,13.21
2023-04-05T07:01:25.853Z,13.27
2023-04-05T07:03:56.586Z,13.37
2023-04-05T07:06:25.249Z,13.47
2023-04-05T07:08:53.194Z,13.52
2023-04-05T07:11:21.192Z,13.58
2023-04-05T07:13:48.476Z,13.68
2023-04-05T07:16:22.842Z,13.82
2023-04-05T07:18:50.802Z,13.96
2023-04-05T07:21:18.665Z,14.07
2023-04-05T07:23:50.318Z,14.18
2023-04-05T07:26:18.208Z,14.28
2023-04-05T07:28:46.061Z,14.39
2023-04-05T07:31:14.224Z,14.48
2023-04-05T07:33:42.109Z,14.55
2023-04-05T07:36:09.897Z,14.62
2023-04-05T07:38:37.318Z,14.70
2023-04-05T07:41:04.846Z,14.71
2023-04-05T07:43:32.330Z,14.70
2023-04-05T07:46:00.947Z,14.74
2023-04-05T07:48:28.885Z,14.78
2023-04-05T07:51:02.630Z,14.83
2023-04-05T07:53:30.767Z,14.85
2023-04-05T07:55:58.821Z,14.88
2023-04-05T07:58:30.070Z,14.92
2023-04-05T08:01:01.020Z,15.00
2023-04-05T08:03:29.594Z,15.10
2023-04-05T08:05:57.781Z,15.26
2023-04-05T08:08:25.266Z,15.39
2023-04-05T08:10:53.601Z,15.53
2023-04-05T08:13:23.220Z,15.62
2023-04-05T08:15:50.811Z,15.71
2023-04-05T08:18:21.194Z,15.84
2023-04-05T08:20:51.932Z,15.92
2023-04-05T08:23:19.383Z,15.95
2023-04-05T08:25:47.049Z,15.98
2023-04-05T08:28:14.812Z,16.02
2023-04-05T08:30:42.796Z,16.08
2023-04-05T08:33:11.902Z,16.13
2023-04-05T08:35:39.274Z,16.19
2023-04-05T08:38:07.396Z,16.21
2023-04-05T08:40:44.224Z,16.20
2023-04-05T08:43:21.078Z,16.21
2023-04-05T08:45:52.137Z,16.17
2023-04-05T08:48:20.984Z,16.18
2023-04-05T08:50:51.882Z,16.20
2023-04-05T08:53:20.114Z,16.21
2023-04-05T08:55:49.463Z,16.27
2023-04-05T08:58:17.572Z,16.37
2023-04-05T09:00:45.945Z,16.46
2023-04-05T09:03:23.219Z,16.51
2023-04-05T09:05:51.735Z,16.57
2023-04-05T09:08:21.030Z,16.63
2023-04-05T09:10:49.599Z,16.68
2023-04-05T09:13:17.674Z,16.72
2023-04-05T09:15:46.461Z,16.76
2023-04-05T09:18:25.421Z,16.79
2023-04-05T09:21:04.740Z,16.85
2023-04-05T09:23:36.633Z,16.92
2023-04-05T09:26:21.070Z,16.92
2023-04-05T09:28:50.345Z,16.89
2023-04-05T09:31:33.566Z,16.92
2023-04-05T09:34:04.726Z,16.92
2023-04-05T09:36:33.235Z,16.89
2023-04-05T09:39:04.945Z,16.85
2023-04-05T09:41:32.746Z,16.80
2023-04-05T09:44:00.752Z,16.77
2023-04-05T09:46:33.628Z,16.75
2023-04-05T09:49:02.053Z,16.73
2023-04-05T09:51:33.296Z,16.71
2023-04-05T09:54:01.632Z,16.70
2023-04-05T09:56:31.387Z,16.69
2023-04-05T09:59:01.209Z,16.69
2023-04-05T10:01:30.197Z,16.72
2023-04-05T10:03:59.681Z,16.76
2023-04-05T10:06:40.255Z,16.86
2023-04-05T10:09:09.070Z,17.00
2023-04-05T10:11:37.221Z,17.15
2023-04-05T10:14:05.592Z,17.33
2023-04-05T10:16:34.212Z,17.53
2023-04-05T10:19:02.847Z,17.76
2023-04-05T10:21:33.087Z,18.10
2023-04-05T10:24:08.511Z,18.40
2023-04-05T10:26:45.220Z,18.75
2023-04-05T10:29:13.289Z,19.12
2023-04-05T10:31:51.730Z,19.45
2023-04-05T10:34:28.443Z,19.77
2023-04-05T10:37:00.620Z,20.04
2023-04-05T10:39:41.388Z,20.23
2023-04-05T10:42:12.027Z,20.48
2023-04-05T10:44:39.357Z,20.70
2023-04-05T10:47:06.919Z,20.77
2023-04-05T10:49:37.581Z,20.82
2023-04-05T10:52:05.616Z,20.96
2023-04-05T10:54:34.414Z,21.05
2023-04-05T10:57:10.976Z,20.99
2023-04-05T10:59:42.824Z,20.79
2023-04-05T11:02:10.977Z,20.51
2023-04-05T11:04:41.039Z,20.18
2023-04-05T11:07:13.127Z,19.89
2023-04-05T11:09:52.856Z,19.61
2023-04-05T11:12:20.400Z,19.34
2023-04-05T11:14:47.898Z,19.13
2023-04-05T11:17:24.674Z,18.91
2023-04-05T11:19:52.911Z,18.81
2023-04-05T11:22:29.584Z,18.69
2023-04-05T11:24:58.299Z,18.57
2023-04-05T11:27:27.392Z,18.45
2023-04-05T11:29:57.588Z,18.35
2023-04-05T11:32:37.803Z,18.31
2023-04-05T11:35:05.853Z,18.27
2023-04-05T11:37:52.484Z,18.22
2023-04-05T11:40:46.392Z,18.20
2023-04-05T11:43:13.755Z,18.15
2023-04-05T11:45:46.661Z,18.17
2023-04-05T11:48:15.008Z,18.20
2023-04-05T11:50:42.577Z,18.21
2023-04-05T11:53:10.920Z,18.20
2023-04-05T11:55:38.943Z,18.20
2023-04-05T11:58:20.815Z,18.20
2023-04-05T12:01:01.688Z,18.19
2023-04-05T12:03:33.611Z,18.25
2023-04-05T12:06:02.107Z,18.36
2023-04-05T12:08:42.587Z,18.49
2023-04-05T12:11:11.270Z,18.58
2023-04-05T12:13:39.879Z,18.68
2023-04-05T12:16:07.830Z,18.76
2023-04-05T12:18:36.204Z,18.82
2023-04-05T12:21:08.465Z,18.85
2023-04-05T12:23:36.847Z,18.85
2023-04-05T12:26:05.836Z,18.86
2023-04-05T12:28:49.476Z,18.89
2023-04-05T12:31:16.933Z,18.91
2023-04-05T12:33:44.396Z,18.96
2023-04-05T12:36:12.513Z,19.07
2023-04-05T12:38:40.223Z,19.19
2023-04-05T12:41:07.578Z,19.31
2023-04-05T12:43:40.663Z,19.42
2023-04-05T12:46:11.741Z,19.53
2023-04-05T12:48:40.083Z,19.61
2023-04-05T12:51:15.731Z,19.63
2023-04-05T12:53:49.062Z,19.63
2023-04-05T12:56:16.397Z,19.61
2023-04-05T12:58:45.786Z,19.57
2023-04-05T13:01:13.178Z,19.53
2023-04-05T13:03:43.324Z,19.47
2023-04-05T13:06:10.619Z,19.36
2023-04-05T13:08:38.273Z,19.28
2023-04-05T13:11:05.720Z,19.20
2023-04-05T13:13:33.815Z,19.11
2023-04-05T13:16:01.184Z,18.98
2023-04-05T13:18:29.088Z,18.83
2023-04-05T13:20:56.587Z,18.70
2023-04-05T13:23:24.042Z,18.53
2023-04-05T13:25:51.341Z,18.43
2023-04-05T13:28:18.762Z,18.32
2023-04-05T13:30:47.336Z,18.20
2023-04-05T13:33:16.034Z,18.08
2023-04-05T13:35:44.311Z,17.96
2023-04-05T13:38:12.162Z,17.86
2023-04-05T13:40:39.611Z,17.79
2023-04-05T13:43:06.769Z,17.73
2023-04-05T13:45:34.740Z,17.68
2023-04-05T13:48:03.164Z,17.65
2023-04-05T13:50:33.227Z,17.60
2023-04-05T13:53:00.892Z,17.56
2023-04-05T13:55:28.774Z,17.55
2023-04-05T13:57:56.149Z,17.55
2023-04-05T14:00:23.919Z,17.55
2023-04-05T14:02:51.523Z,17.55
2023-04-05T14:05:18.721Z,17.53
2023-04-05T14:07:46.349Z,17.52
2023-04-05T14:10:16.605Z,17.44
2023-04-05T14:12:45.050Z,17.39
2023-04-05T14:15:12.712Z,17.36
2023-04-05T14:17:47.077Z,17.31
2023-04-05T14:20:14.992Z,17.26
2023-04-05T14:22:42.557Z,17.21
2023-04-05T14:25:10.108Z,17.13
2023-04-05T14:27:41.701Z,17.00
2023-04-05T14:30:10.801Z,16.90
2023-04-05T14:32:41.522Z,16.80
2023-04-05T14:35:09.153Z,16.70
2023-04-05T14:37:36.810Z,16.59
2023-04-05T14:40:04.987Z,16.47
2023-04-05T14:42:47.929Z,16.36
2023-04-05T14:45:17.563Z,16.22
2023-04-05T14:47:45.107Z,16.10
2023-04-05T14:50:18.675Z,15.97
2023-04-05T14:52:46.451Z,15.89
2023-04-05T14:55:14.009Z,15.81
2023-04-05T14:57:41.564Z,15.72
2023-04-05T15:00:09.625Z,15.65
2023-04-05T15:02:57.614Z,15.61
2023-04-05T15:05:25.238Z,15.58
2023-04-05T15:07:52.577Z,15.50
2023-04-05T15:10:27.099Z,15.39
2023-04-05T15:12:54.966Z,15.29
2023-04-05T15:15:22.398Z,15.18
2023-04-05T15:17:50.634Z,15.07
2023-04-05T15:20:18.041Z,14.94
2023-04-05T15:22:45.508Z,14.84
2023-04-05T15:25:12.969Z,14.76
2023-04-05T15:27:40.935Z,14.68
2023-04-05T15:30:09.008Z,14.61
2023-04-05T15:32:37.916Z,14.54
2023-04-05T15:35:05.775Z,14.44
2023-04-05T15:37:33.315Z,14.34
2023-04-05T15:40:03.187Z,14.33
2023-04-05T15:42:31.833Z,14.32
2023-04-05T15:45:00.251Z,14.26
2023-04-05T15:47:27.776Z,14.21
2023-04-05T15:49:55.106Z,14.16
2023-04-05T15:52:22.459Z,14.14
2023-04-05T15:54:49.923Z,14.10
2023-04-05T15:57:17.268Z,14.08
2023-04-05T15:59:44.840Z,14.05
2023-04-05T16:02:12.179Z,14.03
2023-04-05T16:04:40.049Z,14.04
2023-04-05T16:07:08.740Z,14.02
2023-04-05T16:09:36.602Z,14.01
2023-04-05T16:12:04.058Z,14.01
2023-04-05T16:14:33.068Z,14.00
2023-04-05T16:17:04.147Z,13.99
2023-04-05T16:19:31.754Z,13.98
2023-04-05T16:22:00.544Z,13.98
2023-04-05T16:24:28.002Z,13.97
2023-04-05T16:26:56.377Z,13.95
2023-04-05T16:29:24.457Z,13.92
2023-04-05T16:31:52.494Z,13.90
2023-04-05T16:34:21.624Z,13.86
2023-04-05T16:36:49.038Z,13.84
2023-04-05T16:39:16.525Z,13.80
2023-04-05T16:41:45.931Z,13.76
2023-04-05T16:44:13.339Z,13.74
2023-04-05T16:46:41.067Z,13.74
2023-04-05T16:49:09.528Z,13.76
2023-04-05T16:51:42.216Z,13.75
2023-04-05T16:54:09.677Z,13.72
2023-04-05T16:56:38.554Z,13.70
2023-04-05T16:59:07.702Z,13.67
2023-04-05T17:01:36.100Z,13.69
2023-04-05T17:04:04.698Z,13.67
2023-04-05T17:06:33.294Z,13.68
2023-04-05T17:09:00.939Z,13.70
2023-04-05T17:11:28.924Z,13.71
2023-04-05T17:13:58.871Z,13.69
2023-04-05T17:16:26.315Z,13.69
2023-04-05T17:18:53.851Z,13.63
2023-04-05T17:21:22.747Z,13.60
2023-04-05T17:23:50.208Z,13.57
2023-04-05T17:26:17.762Z,13.56
2023-04-05T17:28:45.745Z,13.55
2023-04-05T17:31:13.426Z,13.56
2023-04-05T17:33:48.592Z,13.57
2023-04-05T17:36:17.289Z,13.53
2023-04-05T17:38:44.509Z,13.53
2023-04-05T17:41:12.332Z,13.56
2023-04-05T17:43:40.299Z,13.62
2023-04-05T17:46:10.038Z,13.66
2023-04-05T17:48:37.801Z,13.68
2023-04-05T17:51:07.488Z,13.69
2023-04-05T17:53:36.063Z,13.69
2023-04-05T17:56:03.432Z,13.68
2023-04-05T17:58:32.015Z,13.67
2023-04-05T18:00:59.885Z,13.66
2023-04-05T18:03:27.794Z,13.64
2023-04-05T18:05:56.115Z,13.63
2023-04-05T18:08:26.136Z,13.63
2023-04-05T18:10:59.644Z,13.63
2023-04-05T18:13:27.097Z,13.62
2023-04-05T18:15:56.250Z,13.58
2023-04-05T18:18:25.735Z,13.55
2023-04-05T18:20:53.867Z,13.55
2023-04-05T18:23:24.376Z,13.56
2023-04-05T18:25:55.167Z,13.53
2023-04-05T18:28:23.657Z,13.50
2023-04-05T18:30:51.468Z,13.48
2023-04-05T18:33:22.350Z,13.46
2023-04-05T18:35:50.086Z,13.44
2023-04-05T18:38:18.020Z,13.44
2023-04-05T18:40:50.118Z,13.42
2023-04-05T18:43:21.448Z,13.42
2023-04-05T18:45:48.817Z,13.44
2023-04-05T18:48:17.439Z,13.45
2023-04-05T18:50:47.362Z,13.44
2023-04-05T18:53:15.059Z,13.48
2023-04-05T18:55:42.438Z,13.49
2023-04-05T18:58:09.976Z,13.51
2023-04-05T19:00:40.502Z,13.53
2023-04-05T19:03:08.206Z,13.54
2023-04-05T19:05:36.337Z,13.55
2023-04-05T19:08:04.827Z,13.55
2023-04-05T19:10:32.897Z,13.54
2023-04-05T19:13:00.152Z,13.47
2023-04-05T19:15:28.631Z,13.42
2023-04-05T19:17:57.743Z,13.42
2023-04-05T19:20:25.348Z,13.41
2023-04-05T19:22:53.736Z,13.42
2023-04-05T19:25:21.631Z,13.42
2023-04-05T19:27:49.030Z,13.44
2023-04-05T19:30:16.342Z,13.45
2023-04-05T19:33:03.834Z,13.48
2023-04-05T19:35:31.342Z,13.50
2023-04-05T19:37:59.523Z,13.55
2023-04-05T19:40:27.609Z,13.57
2023-04-05T19:43:18.186Z,13.60
2023-04-05T19:45:46.880Z,13.59
2023-04-05T19:48:36.737Z,13.59
2023-04-05T19:51:06.643Z,13.57
2023-04-05T19:53:51.769Z,13.55
2023-04-05T19:56:26.183Z,13.53
2023-04-05T19:59:02.843Z,13.51
2023-04-05T20:01:30.641Z,13.50
2023-04-05T20:03:58.590Z,13.52
2023-04-05T20:06:27.524Z,13.52
2023-04-05T20:08:59.154Z,13.54
2023-04-05T20:11:26.947Z,13.53
2023-04-05T20:13:56.748Z,13.54
2023-04-05T20:16:25.999Z,13.54
2023-04-05T20:18:56.186Z,13.54
2023-04-05T20:21:23.737Z,13.57
2023-04-05T20:23:51.758Z,13.59
2023-04-05T20:26:19.487Z,13.61
2023-04-05T20:28:52.866Z,13.62
2023-04-05T20:31:22.205Z,13.64
2023-04-05T20:33:54.237Z,13.64
2023-04-05T20:36:33.596Z,13.65
2023-04-05T20:39:01.646Z,13.66
2023-04-05T20:41:31.245Z,13.67
2023-04-05T20:43:59.115Z,13.67
2023-04-05T20:46:27.975Z,13.65
2023-04-05T20:48:58.195Z,13.64
2023-04-05T20:51:25.891Z,13.63
2023-04-05T20:53:53.344Z,13.62
2023-04-05T20:56:21.516Z,13.62
2023-04-05T20:58:48.953Z,13.60
2023-04-05T21:01:16.992Z,13.59
2023-04-05T21:03:45.784Z,13.56
2023-04-05T21:06:13.306Z,13.53
2023-04-05T21:08:41.157Z,13.45
2023-04-05T21:11:11.172Z,13.40
2023-04-05T21:13:38.945Z,13.39
2023-04-05T21:16:06.973Z,13.37
2023-04-05T21:18:35.641Z,13.34
2023-04-05T21:21:03.048Z,13.35
2023-04-05T21:23:32.081Z,13.37
2023-04-05T21:26:00.864Z,13.39
2023-04-05T21:28:27.973Z,13.41
2023-04-05T21:30:57.284Z,13.44
2023-04-05T21:33:25.443Z,13.46
2023-04-05T21:35:52.817Z,13.48
2023-04-05T21:38:20.991Z,13.52
2023-04-05T21:40:50.345Z,13.54
2023-04-05T21:43:23.368Z,13.56
2023-04-05T21:45:52.498Z,13.59
2023-04-05T21:48:20.936Z,13.58
2023-04-05T21:50:51.678Z,13.55
2023-04-05T21:53:19.743Z,13.52
2023-04-05T21:55:48.484Z,13.49
2023-04-05T21:58:17.334Z,13.46
2023-04-05T22:00:44.799Z,13.45
2023-04-05T22:03:12.458Z,13.45
2023-04-05T22:05:39.895Z,13.45
2023-04-05T22:08:07.850Z,13.45
2023-04-05T22:10:35.976Z,13.46
2023-04-05T22:13:03.281Z,13.47
2023-04-05T22:15:32.708Z,13.48
2023-04-05T22:18:01.398Z,13.49
2023-04-05T22:20:28.831Z,13.46
2023-04-05T22:22:56.192Z,13.45
2023-04-05T22:25:28.358Z,13.42
2023-04-05T22:28:00.357Z,13.41
2023-04-05T22:30:28.428Z,13.39
2023-04-05T22:33:08.791Z,13.37
2023-04-05T22:35:36.424Z,13.36
2023-04-05T22:38:06.558Z,13.34
2023-04-05T22:40:34.484Z,13.30
2023-04-05T22:43:01.697Z,13.27
2023-04-05T22:45:29.315Z,13.25
2023-04-05T22:47:56.831Z,13.21
2023-04-05T22:50:24.421Z,13.18
2023-04-05T22:52:52.078Z,13.14
2023-04-05T22:55:20.263Z,13.11
2023-04-05T22:57:47.849Z,13.09
2023-04-05T23:00:15.682Z,13.07
2023-04-05T23:02:43.077Z,13.06
2023-04-05T23:05:10.602Z,13.05
2023-04-05T23:07:38.153Z,13.03
2023-04-05T23:10:05.923Z,13.01
2023-04-05T23:12:34.294Z,12.98
2023-04-05T23:15:01.666Z,12.94
2023-04-05T23:17:29.542Z,12.92
2023-04-05T23:19:57.173Z,12.90
2023-04-05T23:22:24.653Z,12.87
2023-04-05T23:24:52.500Z,12.84
2023-04-05T23:27:20.770Z,12.82
2023-04-05T23:29:48.146Z,12.84
2023-04-05T23:32:15.685Z,12.84
2023-04-05T23:34:42.835Z,12.86
2023-04-05T23:37:10.595Z,12.91
2023-04-05T23:39:37.848Z,12.96
2023-04-05T23:42:05.819Z,13.00
2023-04-05T23:44:33.377Z,13.04
2023-04-05T23:47:00.911Z,13.07
2023-04-05T23:49:28.800Z,13.05
2023-04-05T23:51:56.265Z,13.03
2023-04-05T23:54:23.511Z,13.00
2023-04-05T23:56:51.169Z,12.97
2023-04-05T23:59:18.650Z,12.97
